sensor_id;sensor_type;location;lat;lon;timestamp;pressure;altitude;pressure_sealevel;temperature;humidity
10700;BME280;5401;41.986;21.452;2023-05-25T00:00:43;98246.94;;;18.80;73.12
10700;BME280;5401;41.986;21.452;2023-05-25T00:03:12;98263.75;;;18.82;73.79
10700;BME280;5401;41.986;21.452;2023-05-25T00:05:40;98269.19;;;18.77;73.42
10700;BME280;5401;41.986;21.452;2023-05-25T00:08:07;98244.41;;;18.49;74.15
10700;BME280;5401;41.986;21.452;2023-05-25T00:10:37;98269.91;;;18.58;74.21
10700;BME280;5401;41.986;21.452;2023-05-25T00:13:04;98266.88;;;18.50;74.44
10700;BME280;5401;41.986;21.452;2023-05-25T00:15:32;98281.28;;;18.50;73.94
10700;BME280;5401;41.986;21.452;2023-05-25T00:17:59;98277.47;;;18.46;74.03
10700;BME280;5401;41.986;21.452;2023-05-25T00:20:28;98279.88;;;18.43;74.78
10700;BME280;5401;41.986;21.452;2023-05-25T00:22:58;98274.72;;;18.36;74.52
10700;BME280;5401;41.986;21.452;2023-05-25T00:25:27;98273.59;;;18.32;74.99
10700;BME280;5401;41.986;21.452;2023-05-25T00:27:54;98280.69;;;18.38;75.20
10700;BME280;5401;41.986;21.452;2023-05-25T00:30:24;98272.75;;;18.32;74.49
10700;BME280;5401;41.986;21.452;2023-05-25T00:32:52;98281.44;;;18.29;75.29
10700;BME280;5401;41.986;21.452;2023-05-25T00:35:20;98284.94;;;18.24;74.45
10700;BME280;5401;41.986;21.452;2023-05-25T00:37:49;98290.91;;;18.26;75.37
10700;BME280;5401;41.986;21.452;2023-05-25T00:40:17;98288.75;;;18.28;75.06
10700;BME280;5401;41.986;21.452;2023-05-25T00:42:46;98288.50;;;18.35;74.64
10700;BME280;5401;41.986;21.452;2023-05-25T00:45:14;98277.34;;;18.26;74.86
10700;BME280;5401;41.986;21.452;2023-05-25T00:47:42;98289.31;;;18.35;75.13
10700;BME280;5401;41.986;21.452;2023-05-25T00:50:13;98268.13;;;18.23;74.85
10700;BME280;5401;41.986;21.452;2023-05-25T00:52:42;98285.25;;;18.33;75.43
10700;BME280;5401;41.986;21.452;2023-05-25T00:55:14;98278.19;;;18.32;75.31
10700;BME280;5401;41.986;21.452;2023-05-25T00:57:46;98300.75;;;18.42;75.06
10700;BME280;5401;41.986;21.452;2023-05-25T01:00:16;98298.31;;;18.41;75.16
10700;BME280;5401;41.986;21.452;2023-05-25T01:02:46;98302.09;;;18.40;75.05
10700;BME280;5401;41.986;21.452;2023-05-25T01:05:18;98302.63;;;18.37;74.78
10700;BME280;5401;41.986;21.452;2023-05-25T01:07:49;98302.63;;;18.37;75.22
10700;BME280;5401;41.986;21.452;2023-05-25T01:10:21;98293.38;;;18.28;75.24
10700;BME280;5401;41.986;21.452;2023-05-25T01:12:52;98305.28;;;18.27;74.66
10700;BME280;5401;41.986;21.452;2023-05-25T01:15:21;98308.78;;;18.23;75.52
10700;BME280;5401;41.986;21.452;2023-05-25T01:17:50;98306.28;;;18.16;74.91
10700;BME280;5401;41.986;21.452;2023-05-25T01:20:19;98297.31;;;18.16;76.07
10700;BME280;5401;41.986;21.452;2023-05-25T01:22:51;98302.19;;;18.14;75.30
10700;BME280;5401;41.986;21.452;2023-05-25T01:25:24;98290.00;;;18.11;75.87
10700;BME280;5401;41.986;21.452;2023-05-25T01:27:55;98298.66;;;18.13;76.40
10700;BME280;5401;41.986;21.452;2023-05-25T01:30:24;98291.06;;;18.10;75.40
10700;BME280;5401;41.986;21.452;2023-05-25T01:32:53;98301.38;;;18.13;75.44
10700;BME280;5401;41.986;21.452;2023-05-25T01:35:21;98295.66;;;18.10;75.82
10700;BME280;5401;41.986;21.452;2023-05-25T01:37:51;98300.22;;;18.04;76.37
10700;BME280;5401;41.986;21.452;2023-05-25T01:40:19;98302.13;;;18.04;75.72
10700;BME280;5401;41.986;21.452;2023-05-25T01:42:46;98299.97;;;18.06;76.08
10700;BME280;5401;41.986;21.452;2023-05-25T01:45:14;98292.44;;;18.08;76.04
10700;BME280;5401;41.986;21.452;2023-05-25T01:47:49;98307.34;;;18.10;75.85
10700;BME280;5401;41.986;21.452;2023-05-25T01:50:23;98309.75;;;18.12;76.00
10700;BME280;5401;41.986;21.452;2023-05-25T01:52:58;98305.44;;;18.11;76.71
10700;BME280;5401;41.986;21.452;2023-05-25T01:55:30;98309.97;;;18.05;76.52
10700;BME280;5401;41.986;21.452;2023-05-25T01:57:59;98305.63;;;18.04;76.49
10700;BME280;5401;41.986;21.452;2023-05-25T02:00:29;98307.47;;;17.99;76.32
10700;BME280;5401;41.986;21.452;2023-05-25T02:02:59;98305.00;;;17.92;76.67
10700;BME280;5401;41.986;21.452;2023-05-25T02:05:27;98310.72;;;17.96;77.31
10700;BME280;5401;41.986;21.452;2023-05-25T02:07:56;98311.53;;;17.96;77.31
10700;BME280;5401;41.986;21.452;2023-05-25T02:10:24;98317.28;;;18.05;76.78
10700;BME280;5401;41.986;21.452;2023-05-25T02:12:51;98318.38;;;18.04;76.73
10700;BME280;5401;41.986;21.452;2023-05-25T02:15:20;98313.47;;;18.01;76.70
10700;BME280;5401;41.986;21.452;2023-05-25T02:17:47;98313.25;;;18.07;76.86
10700;BME280;5401;41.986;21.452;2023-05-25T02:20:15;98305.69;;;18.09;77.34
10700;BME280;5401;41.986;21.452;2023-05-25T02:22:43;98296.50;;;18.10;76.75
10700;BME280;5401;41.986;21.452;2023-05-25T02:25:12;98311.41;;;18.13;76.61
10700;BME280;5401;41.986;21.452;2023-05-25T02:27:39;98308.41;;;18.09;77.09
10700;BME280;5401;41.986;21.452;2023-05-25T02:30:07;98308.97;;;18.11;77.57
10700;BME280;5401;41.986;21.452;2023-05-25T02:32:35;98313.81;;;18.09;77.61
10700;BME280;5401;41.986;21.452;2023-05-25T02:35:02;98294.72;;;17.94;77.34
10700;BME280;5401;41.986;21.452;2023-05-25T02:37:30;98319.69;;;18.01;76.81
10700;BME280;5401;41.986;21.452;2023-05-25T02:39:58;98318.56;;;17.97;77.59
10700;BME280;5401;41.986;21.452;2023-05-25T02:42:26;98319.00;;;17.80;76.74
10700;BME280;5401;41.986;21.452;2023-05-25T02:44:54;98325.16;;;17.75;76.89
10700;BME280;5401;41.986;21.452;2023-05-25T02:47:21;98325.09;;;17.65;77.65
10700;BME280;5401;41.986;21.452;2023-05-25T02:49:49;98330.44;;;17.60;77.47
10700;BME280;5401;41.986;21.452;2023-05-25T02:52:17;98318.97;;;17.49;77.80
10700;BME280;5401;41.986;21.452;2023-05-25T02:54:44;98331.16;;;17.51;77.60
10700;BME280;5401;41.986;21.452;2023-05-25T02:57:12;98331.44;;;17.50;78.71
10700;BME280;5401;41.986;21.452;2023-05-25T02:59:41;98324.34;;;17.44;78.21
10700;BME280;5401;41.986;21.452;2023-05-25T03:02:08;98331.13;;;17.46;78.72
10700;BME280;5401;41.986;21.452;2023-05-25T03:04:36;98331.13;;;17.46;78.20
10700;BME280;5401;41.986;21.452;2023-05-25T03:07:04;98328.09;;;17.43;78.19
10700;BME280;5401;41.986;21.452;2023-05-25T03:09:32;98337.34;;;17.47;78.27
10700;BME280;5401;41.986;21.452;2023-05-25T03:11:59;98338.16;;;17.47;78.40
10700;BME280;5401;41.986;21.452;2023-05-25T03:14:27;98341.41;;;17.44;78.79
10700;BME280;5401;41.986;21.452;2023-05-25T03:16:56;98346.00;;;17.44;78.58
10700;BME280;5401;41.986;21.452;2023-05-25T03:19:23;98334.09;;;17.45;79.13
10700;BME280;5401;41.986;21.452;2023-05-25T03:21:51;98342.28;;;17.50;79.56
10700;BME280;5401;41.986;21.452;2023-05-25T03:24:19;98325.94;;;17.40;78.74
10700;BME280;5401;41.986;21.452;2023-05-25T03:26:46;98347.78;;;17.59;79.44
10700;BME280;5401;41.986;21.452;2023-05-25T03:29:13;98344.31;;;17.64;78.63
10700;BME280;5401;41.986;21.452;2023-05-25T03:31:41;98352.75;;;17.67;78.45
10700;BME280;5401;41.986;21.452;2023-05-25T03:34:11;98333.00;;;17.72;78.40
10700;BME280;5401;41.986;21.452;2023-05-25T03:36:38;98357.03;;;17.94;78.78
10700;BME280;5401;41.986;21.452;2023-05-25T03:39:10;98349.91;;;18.15;77.19
10700;BME280;5401;41.986;21.452;2023-05-25T03:41:39;98353.66;;;18.50;77.08
10700;BME280;5401;41.986;21.452;2023-05-25T03:44:08;98360.66;;;18.87;75.81
10700;BME280;5401;41.986;21.452;2023-05-25T03:46:36;98361.22;;;18.93;75.75
10700;BME280;5401;41.986;21.452;2023-05-25T03:49:03;98357.41;;;18.90;74.29
10700;BME280;5401;41.986;21.452;2023-05-25T03:51:33;98362.63;;;18.96;74.16
10700;BME280;5401;41.986;21.452;2023-05-25T03:54:01;98367.91;;;19.27;73.40
10700;BME280;5401;41.986;21.452;2023-05-25T03:56:29;98365.00;;;19.53;72.68
10700;BME280;5401;41.986;21.452;2023-05-25T03:58:57;98368.50;;;19.44;72.40
10700;BME280;5401;41.986;21.452;2023-05-25T04:01:25;98356.97;;;19.12;73.04
10700;BME280;5401;41.986;21.452;2023-05-25T04:03:55;98377.88;;;19.07;72.75
10700;BME280;5401;41.986;21.452;2023-05-25T04:06:24;98379.69;;;18.96;73.31
10700;BME280;5401;41.986;21.452;2023-05-25T04:08:53;98385.72;;;19.03;73.04
10700;BME280;5401;41.986;21.452;2023-05-25T04:11:20;98374.38;;;19.11;73.51
10700;BME280;5401;41.986;21.452;2023-05-25T04:13:49;98386.66;;;19.33;73.27
10700;BME280;5401;41.986;21.452;2023-05-25T04:16:17;98381.09;;;19.99;72.06
10700;BME280;5401;41.986;21.452;2023-05-25T04:18:47;98379.13;;;20.83;70.05
10700;BME280;5401;41.986;21.452;2023-05-25T04:21:15;98386.59;;;21.79;68.08
10700;BME280;5401;41.986;21.452;2023-05-25T04:23:43;98386.13;;;22.43;65.68
10700;BME280;5401;41.986;21.452;2023-05-25T04:26:12;98393.28;;;22.95;63.85
10700;BME280;5401;41.986;21.452;2023-05-25T04:28:40;98403.22;;;23.09;62.64
10700;BME280;5401;41.986;21.452;2023-05-25T04:31:08;98405.00;;;22.67;62.65
10700;BME280;5401;41.986;21.452;2023-05-25T04:33:37;98404.53;;;22.60;62.79
10700;BME280;5401;41.986;21.452;2023-05-25T04:36:06;98413.38;;;23.04;62.11
10700;BME280;5401;41.986;21.452;2023-05-25T04:38:36;98405.31;;;23.17;61.22
10700;BME280;5401;41.986;21.452;2023-05-25T04:41:03;98407.97;;;23.22;61.17
10700;BME280;5401;41.986;21.452;2023-05-25T04:43:32;98418.63;;;23.24;61.23
10700;BME280;5401;41.986;21.452;2023-05-25T04:46:00;98419.13;;;23.49;60.79
10700;BME280;5401;41.986;21.452;2023-05-25T04:48:29;98420.97;;;23.95;60.47
10700;BME280;5401;41.986;21.452;2023-05-25T04:50:59;98429.03;;;24.23;59.65
10700;BME280;5401;41.986;21.452;2023-05-25T04:53:28;98431.09;;;24.12;59.77
10700;BME280;5401;41.986;21.452;2023-05-25T04:55:55;98422.97;;;24.07;59.85
10700;BME280;5401;41.986;21.452;2023-05-25T04:58:24;98409.09;;;23.86;59.47
10700;BME280;5401;41.986;21.452;2023-05-25T05:00:52;98428.66;;;23.74;60.00
10700;BME280;5401;41.986;21.452;2023-05-25T05:03:20;98430.34;;;23.70;59.99
10700;BME280;5401;41.986;21.452;2023-05-25T05:05:49;98432.63;;;23.40;60.31
10700;BME280;5401;41.986;21.452;2023-05-25T05:08:16;98437.06;;;23.13;60.55
10700;BME280;5401;41.986;21.452;2023-05-25T05:10:43;98432.50;;;23.04;60.69
10700;BME280;5401;41.986;21.452;2023-05-25T05:13:11;98432.25;;;23.00;60.69
10700;BME280;5401;41.986;21.452;2023-05-25T05:15:39;98434.47;;;22.98;60.92
10700;BME280;5401;41.986;21.452;2023-05-25T05:18:07;98430.81;;;23.08;60.29
10700;BME280;5401;41.986;21.452;2023-05-25T05:20:35;98434.25;;;23.41;60.33
10700;BME280;5401;41.986;21.452;2023-05-25T05:23:02;98436.78;;;23.79;59.83
10700;BME280;5401;41.986;21.452;2023-05-25T05:25:30;98432.94;;;24.17;59.31
10700;BME280;5401;41.986;21.452;2023-05-25T05:27:57;98439.69;;;24.42;58.87
10700;BME280;5401;41.986;21.452;2023-05-25T05:30:25;98438.88;;;24.73;58.52
10700;BME280;5401;41.986;21.452;2023-05-25T05:32:52;98439.31;;;25.25;57.65
10700;BME280;5401;41.986;21.452;2023-05-25T05:35:22;98437.91;;;25.68;57.14
10700;BME280;5401;41.986;21.452;2023-05-25T05:37:49;98438.25;;;26.01;55.92
10700;BME280;5401;41.986;21.452;2023-05-25T05:40:17;98442.03;;;26.40;55.52
10700;BME280;5401;41.986;21.452;2023-05-25T05:42:45;98424.69;;;26.75;54.69
10700;BME280;5401;41.986;21.452;2023-05-25T05:45:13;98430.91;;;27.19;53.84
10700;BME280;5401;41.986;21.452;2023-05-25T05:47:41;98406.34;;;27.52;53.35
10700;BME280;5401;41.986;21.452;2023-05-25T05:50:09;98430.47;;;28.10;52.24
10700;BME280;5401;41.986;21.452;2023-05-25T05:52:38;98418.63;;;28.35;51.61
10700;BME280;5401;41.986;21.452;2023-05-25T05:55:06;98434.38;;;28.60;51.38
10700;BME280;5401;41.986;21.452;2023-05-25T05:57:35;98422.03;;;28.74;50.66
10700;BME280;5401;41.986;21.452;2023-05-25T06:00:04;98410.34;;;28.85;50.39
10700;BME280;5401;41.986;21.452;2023-05-25T06:02:31;98433.16;;;29.11;50.11
10700;BME280;5401;41.986;21.452;2023-05-25T06:05:00;98437.97;;;29.39;49.63
10700;BME280;5401;41.986;21.452;2023-05-25T06:07:27;98438.38;;;29.49;49.18
10700;BME280;5401;41.986;21.452;2023-05-25T06:09:57;98443.44;;;29.47;48.58
10700;BME280;5401;41.986;21.452;2023-05-25T06:12:24;98438.63;;;29.65;48.40
10700;BME280;5401;41.986;21.452;2023-05-25T06:14:52;98439.91;;;30.04;48.36
10700;BME280;5401;41.986;21.452;2023-05-25T06:17:19;98440.03;;;30.36;47.19
10700;BME280;5401;41.986;21.452;2023-05-25T06:19:47;98447.44;;;30.24;47.26
10700;BME280;5401;41.986;21.452;2023-05-25T06:22:15;98441.19;;;30.07;47.25
10700;BME280;5401;41.986;21.452;2023-05-25T06:24:42;98446.56;;;30.03;46.91
10700;BME280;5401;41.986;21.452;2023-05-25T06:27:11;98447.25;;;30.00;46.60
10700;BME280;5401;41.986;21.452;2023-05-25T06:29:39;98447.63;;;29.90;46.74
10700;BME280;5401;41.986;21.452;2023-05-25T06:32:06;98449.44;;;29.86;46.86
10700;BME280;5401;41.986;21.452;2023-05-25T06:34:36;98447.88;;;29.97;46.69
10700;BME280;5401;41.986;21.452;2023-05-25T06:37:04;98446.31;;;30.17;46.60
10700;BME280;5401;41.986;21.452;2023-05-25T06:39:32;98450.78;;;30.29;46.40
10700;BME280;5401;41.986;21.452;2023-05-25T06:41:59;98441.59;;;30.17;46.15
10700;BME280;5401;41.986;21.452;2023-05-25T06:44:28;98441.72;;;30.00;45.78
10700;BME280;5401;41.986;21.452;2023-05-25T06:46:56;98443.69;;;29.91;45.81
10700;BME280;5401;41.986;21.452;2023-05-25T06:49:23;98441.25;;;29.61;46.20
10700;BME280;5401;41.986;21.452;2023-05-25T06:51:51;98443.19;;;29.61;46.10
10700;BME280;5401;41.986;21.452;2023-05-25T06:54:18;98445.00;;;29.57;46.15
10700;BME280;5401;41.986;21.452;2023-05-25T06:56:46;98448.59;;;29.57;45.81
10700;BME280;5401;41.986;21.452;2023-05-25T06:59:14;98440.94;;;29.54;46.23
10700;BME280;5401;41.986;21.452;2023-05-25T07:01:45;98446.50;;;29.46;46.34
10700;BME280;5401;41.986;21.452;2023-05-25T07:04:12;98435.84;;;29.36;46.03
10700;BME280;5401;41.986;21.452;2023-05-25T07:06:40;98434.34;;;29.39;45.84
10700;BME280;5401;41.986;21.452;2023-05-25T07:09:07;98432.44;;;29.39;46.26
10700;BME280;5401;41.986;21.452;2023-05-25T07:11:35;98419.59;;;29.35;46.07
10700;BME280;5401;41.986;21.452;2023-05-25T07:14:02;98440.94;;;29.54;45.95
10700;BME280;5401;41.986;21.452;2023-05-25T07:16:30;98433.78;;;29.62;45.55
10700;BME280;5401;41.986;21.452;2023-05-25T07:18:59;98447.72;;;29.74;45.88
10700;BME280;5401;41.986;21.452;2023-05-25T07:21:30;98435.47;;;29.83;45.95
10700;BME280;5401;41.986;21.452;2023-05-25T07:23:58;98422.66;;;29.79;45.36
10700;BME280;5401;41.986;21.452;2023-05-25T07:26:27;98419.19;;;29.90;45.32
10700;BME280;5401;41.986;21.452;2023-05-25T07:28:54;98428.63;;;30.09;44.81
10700;BME280;5401;41.986;21.452;2023-05-25T07:31:22;98422.31;;;30.09;45.22
10700;BME280;5401;41.986;21.452;2023-05-25T07:33:49;98417.84;;;30.24;44.76
10700;BME280;5401;41.986;21.452;2023-05-25T07:36:19;98428.34;;;30.51;44.35
10700;BME280;5401;41.986;21.452;2023-05-25T07:38:49;98406.28;;;30.83;44.18
10700;BME280;5401;41.986;21.452;2023-05-25T07:41:17;98414.69;;;31.30;43.21
10700;BME280;5401;41.986;21.452;2023-05-25T07:43:45;98423.03;;;31.54;43.14
10700;BME280;5401;41.986;21.452;2023-05-25T07:46:12;98416.13;;;31.72;43.05
10700;BME280;5401;41.986;21.452;2023-05-25T07:48:42;98419.69;;;31.49;43.03
10700;BME280;5401;41.986;21.452;2023-05-25T07:51:09;98407.84;;;31.16;43.32
10700;BME280;5401;41.986;21.452;2023-05-25T07:53:38;98412.41;;;30.89;43.72
10700;BME280;5401;41.986;21.452;2023-05-25T07:56:07;98417.25;;;30.71;43.12
10700;BME280;5401;41.986;21.452;2023-05-25T07:58:35;98404.09;;;30.36;43.68
10700;BME280;5401;41.986;21.452;2023-05-25T08:01:03;98405.00;;;30.20;43.97
10700;BME280;5401;41.986;21.452;2023-05-25T08:03:30;98413.13;;;29.96;44.19
10700;BME280;5401;41.986;21.452;2023-05-25T08:05:58;98409.88;;;29.74;44.48
10700;BME280;5401;41.986;21.452;2023-05-25T08:08:25;98414.31;;;29.58;44.51
10700;BME280;5401;41.986;21.452;2023-05-25T08:10:54;98408.69;;;29.46;44.67
10700;BME280;5401;41.986;21.452;2023-05-25T08:13:22;98384.59;;;29.27;44.56
10700;BME280;5401;41.986;21.452;2023-05-25T08:15:49;98417.41;;;29.11;44.97
10700;BME280;5401;41.986;21.452;2023-05-25T08:18:17;98415.19;;;28.88;45.26
10700;BME280;5401;41.986;21.452;2023-05-25T08:20:45;98414.72;;;28.78;45.29
10700;BME280;5401;41.986;21.452;2023-05-25T08:23:12;98402.72;;;28.74;45.58
10700;BME280;5401;41.986;21.452;2023-05-25T08:25:40;98388.50;;;28.64;45.44
10700;BME280;5401;41.986;21.452;2023-05-25T08:28:09;98393.50;;;28.62;45.48
10700;BME280;5401;41.986;21.452;2023-05-25T08:30:37;98412.78;;;28.53;45.58
10700;BME280;5401;41.986;21.452;2023-05-25T08:33:04;98402.28;;;28.38;45.42
10700;BME280;5401;41.986;21.452;2023-05-25T08:35:38;98399.19;;;28.40;45.57
10700;BME280;5401;41.986;21.452;2023-05-25T08:38:08;98397.09;;;28.37;45.71
10700;BME280;5401;41.986;21.452;2023-05-25T08:40:37;98396.75;;;28.38;45.70
10700;BME280;5401;41.986;21.452;2023-05-25T08:43:09;98400.50;;;28.59;45.54
10700;BME280;5401;41.986;21.452;2023-05-25T08:45:37;98386.84;;;28.79;45.22
10700;BME280;5401;41.986;21.452;2023-05-25T08:48:09;98393.72;;;29.19;44.93
10700;BME280;5401;41.986;21.452;2023-05-25T08:50:38;98389.13;;;29.31;44.51
10700;BME280;5401;41.986;21.452;2023-05-25T08:53:09;98386.84;;;29.33;44.40
10700;BME280;5401;41.986;21.452;2023-05-25T08:55:41;98384.22;;;29.37;44.13
10700;BME280;5401;41.986;21.452;2023-05-25T08:58:14;98377.56;;;29.38;43.99
10700;BME280;5401;41.986;21.452;2023-05-25T09:00:49;98387.94;;;29.41;43.91
10700;BME280;5401;41.986;21.452;2023-05-25T09:03:19;98390.16;;;29.47;43.98
10700;BME280;5401;41.986;21.452;2023-05-25T09:05:49;98384.38;;;29.69;43.76
10700;BME280;5401;41.986;21.452;2023-05-25T09:08:18;98383.00;;;29.83;43.19
10700;BME280;5401;41.986;21.452;2023-05-25T09:10:47;98370.38;;;30.02;43.20
10700;BME280;5401;41.986;21.452;2023-05-25T09:13:18;98368.41;;;30.23;43.37
10700;BME280;5401;41.986;21.452;2023-05-25T09:15:46;98365.00;;;30.46;42.76
10700;BME280;5401;41.986;21.452;2023-05-25T09:18:14;98355.41;;;30.76;42.62
10700;BME280;5401;41.986;21.452;2023-05-25T09:20:42;98342.34;;;30.96;41.93
10700;BME280;5401;41.986;21.452;2023-05-25T09:23:10;98363.09;;;31.02;42.14
10700;BME280;5401;41.986;21.452;2023-05-25T09:25:37;98358.38;;;31.15;41.45
10700;BME280;5401;41.986;21.452;2023-05-25T09:28:07;98352.22;;;31.29;41.59
10700;BME280;5401;41.986;21.452;2023-05-25T09:30:36;98354.75;;;31.46;41.27
10700;BME280;5401;41.986;21.452;2023-05-25T09:33:10;98343.66;;;31.58;41.43
10700;BME280;5401;41.986;21.452;2023-05-25T09:35:38;98353.22;;;31.72;41.03
10700;BME280;5401;41.986;21.452;2023-05-25T09:38:06;98345.06;;;31.64;41.30
10700;BME280;5401;41.986;21.452;2023-05-25T09:40:34;98332.47;;;31.19;41.57
10700;BME280;5401;41.986;21.452;2023-05-25T09:43:02;98344.41;;;30.88;41.33
10700;BME280;5401;41.986;21.452;2023-05-25T09:45:30;98345.38;;;30.71;41.42
10700;BME280;5401;41.986;21.452;2023-05-25T09:47:59;98350.28;;;30.98;41.55
10700;BME280;5401;41.986;21.452;2023-05-25T09:50:27;98340.06;;;31.10;41.13
10700;BME280;5401;41.986;21.452;2023-05-25T09:52:57;98335.31;;;31.23;40.71
10700;BME280;5401;41.986;21.452;2023-05-25T09:55:26;98329.75;;;31.31;40.29
10700;BME280;5401;41.986;21.452;2023-05-25T09:57:55;98323.72;;;31.41;40.30
10700;BME280;5401;41.986;21.452;2023-05-25T10:00:23;98319.47;;;31.55;40.33
10700;BME280;5401;41.986;21.452;2023-05-25T10:02:51;98321.19;;;31.60;40.02
10700;BME280;5401;41.986;21.452;2023-05-25T10:05:20;98318.75;;;31.34;40.50
10700;BME280;5401;41.986;21.452;2023-05-25T10:07:50;98315.25;;;31.02;40.85
10700;BME280;5401;41.986;21.452;2023-05-25T10:10:19;98318.38;;;31.12;40.14
10700;BME280;5401;41.986;21.452;2023-05-25T10:12:49;98305.59;;;31.20;40.14
10700;BME280;5401;41.986;21.452;2023-05-25T10:15:19;98309.06;;;31.05;40.34
10700;BME280;5401;41.986;21.452;2023-05-25T10:17:51;98299.13;;;30.92;40.65
10700;BME280;5401;41.986;21.452;2023-05-25T10:20:21;98297.28;;;31.08;40.87
10700;BME280;5401;41.986;21.452;2023-05-25T10:22:55;98293.81;;;31.23;40.45
10700;BME280;5401;41.986;21.452;2023-05-25T10:25:25;98280.34;;;31.45;39.68
10700;BME280;5401;41.986;21.452;2023-05-25T10:27:56;98279.78;;;31.51;40.06
10700;BME280;5401;41.986;21.452;2023-05-25T10:30:26;98266.28;;;31.02;40.38
10700;BME280;5401;41.986;21.452;2023-05-25T10:32:54;98271.94;;;31.06;40.02
10700;BME280;5401;41.986;21.452;2023-05-25T10:35:23;98280.22;;;31.06;40.04
10700;BME280;5401;41.986;21.452;2023-05-25T10:37:52;98263.75;;;31.21;40.29
10700;BME280;5401;41.986;21.452;2023-05-25T10:40:21;98264.66;;;31.49;39.66
10700;BME280;5401;41.986;21.452;2023-05-25T10:42:49;98271.00;;;31.02;39.70
10700;BME280;5401;41.986;21.452;2023-05-25T10:45:17;98266.66;;;30.57;40.49
10700;BME280;5401;41.986;21.452;2023-05-25T10:47:45;98259.06;;;30.22;40.63
10700;BME280;5401;41.986;21.452;2023-05-25T10:50:20;98257.09;;;30.22;40.71
10700;BME280;5401;41.986;21.452;2023-05-25T10:53:01;98253.06;;;30.20;40.57
10700;BME280;5401;41.986;21.452;2023-05-25T10:55:41;98245.00;;;29.95;40.78
10700;BME280;5401;41.986;21.452;2023-05-25T10:58:09;98244.22;;;29.74;41.37
10700;BME280;5401;41.986;21.452;2023-05-25T11:00:38;98252.63;;;29.57;41.22
10700;BME280;5401;41.986;21.452;2023-05-25T11:03:06;98246.75;;;29.39;41.48
10700;BME280;5401;41.986;21.452;2023-05-25T11:05:36;98250.94;;;29.16;41.60
10700;BME280;5401;41.986;21.452;2023-05-25T11:08:06;98254.97;;;28.90;41.96
10700;BME280;5401;41.986;21.452;2023-05-25T11:10:49;98258.47;;;28.62;42.24
10700;BME280;5401;41.986;21.452;2023-05-25T11:13:22;98252.59;;;28.09;43.05
10700;BME280;5401;41.986;21.452;2023-05-25T11:16:11;98265.56;;;27.92;43.47
10700;BME280;5401;41.986;21.452;2023-05-25T11:18:40;98262.97;;;27.70;43.83
10700;BME280;5401;41.986;21.452;2023-05-25T11:21:15;98275.84;;;27.28;44.44
10700;BME280;5401;41.986;21.452;2023-05-25T11:23:55;98275.28;;;26.62;45.24
10700;BME280;5401;41.986;21.452;2023-05-25T11:26:24;98270.56;;;26.24;45.97
10700;BME280;5401;41.986;21.452;2023-05-25T11:28:53;98280.50;;;25.99;45.93
10700;BME280;5401;41.986;21.452;2023-05-25T11:31:26;98294.72;;;25.79;46.71
10700;BME280;5401;41.986;21.452;2023-05-25T11:33:56;98284.63;;;25.66;47.02
10700;BME280;5401;41.986;21.452;2023-05-25T11:36:24;98287.00;;;25.59;47.07
10700;BME280;5401;41.986;21.452;2023-05-25T11:38:53;98277.13;;;25.58;46.96
10700;BME280;5401;41.986;21.452;2023-05-25T11:41:22;98273.91;;;25.78;46.55
10700;BME280;5401;41.986;21.452;2023-05-25T11:43:52;98280.06;;;26.05;46.10
10700;BME280;5401;41.986;21.452;2023-05-25T11:46:21;98279.63;;;26.33;45.95
10700;BME280;5401;41.986;21.452;2023-05-25T11:48:50;98277.69;;;26.64;45.14
10700;BME280;5401;41.986;21.452;2023-05-25T11:51:20;98298.09;;;27.01;44.27
10700;BME280;5401;41.986;21.452;2023-05-25T11:53:48;98291.38;;;27.32;44.06
10700;BME280;5401;41.986;21.452;2023-05-25T11:56:18;98298.56;;;27.67;43.90
10700;BME280;5401;41.986;21.452;2023-05-25T11:58:46;98278.84;;;27.90;43.25
10700;BME280;5401;41.986;21.452;2023-05-25T12:01:15;98298.59;;;28.17;42.70
10700;BME280;5401;41.986;21.452;2023-05-25T12:03:44;98265.97;;;28.44;42.18
10700;BME280;5401;41.986;21.452;2023-05-25T12:06:27;98286.97;;;28.74;42.11
10700;BME280;5401;41.986;21.452;2023-05-25T12:08:56;98296.75;;;28.63;42.03
10700;BME280;5401;41.986;21.452;2023-05-25T12:11:29;98297.13;;;28.11;42.52
10700;BME280;5401;41.986;21.452;2023-05-25T12:13:57;98299.84;;;27.53;43.47
10700;BME280;5401;41.986;21.452;2023-05-25T12:16:26;98281.59;;;27.01;43.99
10700;BME280;5401;41.986;21.452;2023-05-25T12:18:54;98296.63;;;26.95;44.44
10700;BME280;5401;41.986;21.452;2023-05-25T12:21:22;98299.97;;;26.84;44.93
10700;BME280;5401;41.986;21.452;2023-05-25T12:23:50;98293.66;;;26.84;45.14
10700;BME280;5401;41.986;21.452;2023-05-25T12:26:19;98291.16;;;26.74;44.77
10700;BME280;5401;41.986;21.452;2023-05-25T12:29:01;98305.38;;;26.76;45.37
10700;BME280;5401;41.986;21.452;2023-05-25T12:31:31;98306.00;;;26.64;45.86
10700;BME280;5401;41.986;21.452;2023-05-25T12:34:04;98307.75;;;26.30;46.01
10700;BME280;5401;41.986;21.452;2023-05-25T12:36:44;98322.41;;;25.91;47.27
10700;BME280;5401;41.986;21.452;2023-05-25T12:39:13;98333.91;;;25.58;47.37
10700;BME280;5401;41.986;21.452;2023-05-25T12:41:50;98338.91;;;25.29;48.18
10700;BME280;5401;41.986;21.452;2023-05-25T12:44:21;98346.31;;;25.02;48.52
10700;BME280;5401;41.986;21.452;2023-05-25T12:46:50;98361.38;;;24.86;49.00
10700;BME280;5401;41.986;21.452;2023-05-25T12:49:23;98348.56;;;24.55;49.72
10700;BME280;5401;41.986;21.452;2023-05-25T12:51:51;98364.59;;;24.48;49.99
10700;BME280;5401;41.986;21.452;2023-05-25T12:54:40;98365.97;;;24.46;50.43
10700;BME280;5401;41.986;21.452;2023-05-25T12:57:10;98385.13;;;24.46;50.20
10700;BME280;5401;41.986;21.452;2023-05-25T12:59:41;98372.84;;;24.30;50.90
10700;BME280;5401;41.986;21.452;2023-05-25T13:02:09;98418.38;;;24.39;50.89
10700;BME280;5401;41.986;21.452;2023-05-25T13:04:38;98411.44;;;24.29;51.01
10700;BME280;5401;41.986;21.452;2023-05-25T13:07:07;98421.38;;;24.25;51.43
10700;BME280;5401;41.986;21.452;2023-05-25T13:09:36;98416.09;;;24.10;51.39